createdAt,value
2017-07-28T00:02:23.943Z,17.30
2017-07-28T00:04:52.209Z,17.20
2017-07-28T00:07:20.533Z,17.30
2017-07-28T00:09:48.791Z,17.30
2017-07-28T00:12:17.059Z,17.30
2017-07-28T00:14:46.141Z,17.10
2017-07-28T00:17:15.179Z,17.10
2017-07-28T00:19:43.441Z,17.10
2017-07-28T00:22:11.908Z,17.10
2017-07-28T00:24:40.175Z,17.10
2017-07-28T00:27:08.448Z,17.10
2017-07-28T00:29:36.749Z,17.10
2017-07-28T00:32:05.783Z,17.20
2017-07-28T00:34:34.049Z,17.10
2017-07-28T00:37:02.343Z,17.20
2017-07-28T00:39:31.417Z,17.20
2017-07-28T00:41:59.667Z,17.20
2017-07-28T00:44:27.989Z,17.20
2017-07-28T00:46:56.251Z,17.10
2017-07-28T00:49:24.523Z,17.00
2017-07-28T00:51:52.825Z,17.00
2017-07-28T00:54:21.847Z,17.00
2017-07-28T00:56:50.117Z,16.90
2017-07-28T00:59:18.419Z,17.00
2017-07-28T01:01:47.456Z,17.00
2017-07-28T01:04:15.719Z,17.00
2017-07-28T01:06:44.032Z,17.10
2017-07-28T01:09:13.059Z,17.20
2017-07-28T01:11:41.324Z,17.10
2017-07-28T01:14:09.624Z,17.30
2017-07-28T01:16:38.655Z,17.20
2017-07-28T01:19:06.916Z,17.20
2017-07-28T01:21:35.216Z,17.30
2017-07-28T01:24:03.480Z,17.20
2017-07-28T01:26:31.743Z,17.30
2017-07-28T01:29:00.068Z,17.10
2017-07-28T01:31:28.335Z,17.10
2017-07-28T01:33:56.591Z,17.00
2017-07-28T01:36:24.892Z,17.00
2017-07-28T01:38:53.944Z,16.90
2017-07-28T01:41:22.200Z,16.90
2017-07-28T01:43:50.528Z,16.90
2017-07-28T01:46:18.792Z,16.90
2017-07-28T01:48:47.077Z,16.90
2017-07-28T01:51:15.399Z,16.90
2017-07-28T01:53:44.429Z,16.80
2017-07-28T01:56:12.695Z,16.80
2017-07-28T01:58:41.091Z,16.90
2017-07-28T02:01:09.364Z,16.90
2017-07-28T02:03:38.021Z,18.10
2017-07-28T02:06:07.085Z,16.90
2017-07-28T02:08:36.852Z,16.90
2017-07-28T02:11:05.107Z,16.90
2017-07-28T02:13:33.412Z,16.80
2017-07-28T02:16:02.459Z,16.80
2017-07-28T02:18:30.728Z,16.80
2017-07-28T02:20:59.056Z,16.80
2017-07-28T02:23:27.337Z,16.80
2017-07-28T02:25:55.779Z,16.80
2017-07-28T02:28:24.079Z,16.80
2017-07-28T02:30:52.348Z,16.60
2017-07-28T02:33:20.611Z,16.50
2017-07-28T02:35:48.916Z,16.50
2017-07-28T02:38:17.184Z,16.40
2017-07-28T02:40:45.472Z,16.30
2017-07-28T02:43:13.791Z,16.20
2017-07-28T02:45:42.067Z,16.10
2017-07-28T02:48:10.327Z,16.10
2017-07-28T02:50:38.765Z,16.10
2017-07-28T02:53:07.796Z,16.20
2017-07-28T02:55:36.976Z,16.10
2017-07-28T02:58:05.284Z,16.20
2017-07-28T03:00:34.324Z,16.10
2017-07-28T03:03:02.595Z,16.10
2017-07-28T03:05:30.899Z,16.20
2017-07-28T03:07:59.932Z,16.20
2017-07-28T03:10:28.203Z,16.10
2017-07-28T03:12:56.708Z,16.20
2017-07-28T03:15:24.972Z,16.20
2017-07-28T03:17:53.239Z,16.10
2017-07-28T03:20:21.544Z,16.00
2017-07-28T03:22:49.807Z,16.00
2017-07-28T03:25:18.083Z,16.00
2017-07-28T03:27:46.392Z,16.00
2017-07-28T03:30:14.695Z,16.00
2017-07-28T03:32:42.968Z,16.00
2017-07-28T03:35:11.260Z,16.00
2017-07-28T03:37:39.522Z,15.90
2017-07-28T03:40:07.807Z,15.90
2017-07-28T03:42:36.099Z,15.80
2017-07-28T03:45:04.371Z,15.80
2017-07-28T03:47:32.632Z,15.70
2017-07-28T03:50:00.945Z,15.70
2017-07-28T03:52:29.205Z,15.70
2017-07-28T03:54:57.468Z,15.70
2017-07-28T03:57:25.771Z,15.70
2017-07-28T03:59:54.047Z,15.70
2017-07-28T04:02:22.313Z,15.70
2017-07-28T04:04:50.629Z,15.70
2017-07-28T04:07:18.955Z,15.80
2017-07-28T04:09:47.223Z,15.80
2017-07-28T04:12:15.519Z,15.80
2017-07-28T04:14:44.040Z,15.80
2017-07-28T04:17:13.086Z,15.90
2017-07-28T04:19:41.383Z,15.80
2017-07-28T04:22:10.412Z,15.90
2017-07-28T04:24:38.673Z,15.90
2017-07-28T04:27:06.963Z,15.90
2017-07-28T04:29:35.223Z,15.80
2017-07-28T04:32:03.496Z,15.80
2017-07-28T04:34:32.676Z,15.80
2017-07-28T04:37:01.703Z,15.90
2017-07-28T04:39:29.967Z,15.80
2017-07-28T04:41:58.272Z,15.80
2017-07-28T04:44:26.540Z,15.80
2017-07-28T04:46:55.602Z,15.90
2017-07-28T04:49:23.907Z,15.90
2017-07-28T04:51:52.175Z,16.00
2017-07-28T04:54:20.548Z,16.00
2017-07-28T04:56:48.856Z,16.00
2017-07-28T04:59:17.120Z,16.00
2017-07-28T05:01:45.393Z,16.00
2017-07-28T05:04:14.460Z,16.10
2017-07-28T05:06:42.739Z,16.00
2017-07-28T05:09:11.768Z,16.10
2017-07-28T05:11:40.072Z,16.00
2017-07-28T05:14:09.104Z,16.10
2017-07-28T05:16:37.364Z,16.00
2017-07-28T05:19:05.667Z,16.00
2017-07-28T05:21:33.928Z,16.10
2017-07-28T05:24:02.197Z,16.10
2017-07-28T05:26:31.260Z,16.10
2017-07-28T05:28:59.541Z,16.10
2017-07-28T05:31:28.567Z,16.10
2017-07-28T05:33:56.863Z,16.10
2017-07-28T05:36:25.131Z,16.10
2017-07-28T05:38:54.172Z,16.20
2017-07-28T05:41:22.765Z,16.10
2017-07-28T05:43:51.050Z,16.20
2017-07-28T05:46:19.299Z,16.20
2017-07-28T05:48:47.623Z,16.20
2017-07-28T05:51:15.895Z,16.20
2017-07-28T05:53:44.167Z,16.20
2017-07-28T05:56:12.475Z,16.20
2017-07-28T05:58:40.748Z,16.20
2017-07-28T06:01:09.008Z,16.20
2017-07-28T06:03:37.316Z,16.20
2017-07-28T06:06:05.587Z,16.20
2017-07-28T06:08:33.860Z,16.20
2017-07-28T06:11:02.959Z,16.10
2017-07-28T06:13:31.219Z,16.10
2017-07-28T06:15:59.488Z,16.10
2017-07-28T06:21:02.404Z,16.20
2017-07-28T06:23:30.731Z,16.30
2017-07-28T06:25:59.000Z,16.30
2017-07-28T06:28:27.276Z,16.30
2017-07-28T06:30:55.576Z,16.40
2017-07-28T06:33:24.029Z,16.40
2017-07-28T06:35:52.287Z,16.40
2017-07-28T06:38:20.601Z,16.40
2017-07-28T06:40:48.871Z,16.40
2017-07-28T06:43:17.136Z,16.50
2017-07-28T06:45:45.439Z,16.50
2017-07-28T06:48:13.707Z,16.70
2017-07-28T06:50:41.991Z,16.70
2017-07-28T06:53:11.079Z,16.90
2017-07-28T06:55:39.352Z,16.90
2017-07-28T06:58:07.628Z,17.00
2017-07-28T07:00:35.927Z,17.10
2017-07-28T07:03:04.204Z,17.20
2017-07-28T07:05:33.232Z,17.30
2017-07-28T07:08:01.522Z,17.20
2017-07-28T07:10:29.787Z,17.30
2017-07-28T07:12:58.060Z,17.30
2017-07-28T07:15:27.139Z,17.00
2017-07-28T07:17:56.172Z,16.90
2017-07-28T07:20:24.431Z,16.90
2017-07-28T07:22:52.740Z,17.00
2017-07-28T07:25:20.995Z,16.90
2017-07-28T07:27:49.259Z,17.00
2017-07-28T07:30:18.539Z,17.00
2017-07-28T07:32:46.808Z,17.00
2017-07-28T07:35:15.839Z,17.20
2017-07-28T07:37:44.161Z,17.20
2017-07-28T07:40:13.196Z,17.80
2017-07-28T07:42:41.470Z,17.70
2017-07-28T07:45:09.875Z,17.90
2017-07-28T07:47:38.188Z,18.00
2017-07-28T07:50:06.452Z,18.20
2017-07-28T07:52:34.770Z,18.30
2017-07-28T07:55:03.042Z,18.50
2017-07-28T07:57:31.309Z,18.60
2017-07-28T07:59:59.636Z,18.70
2017-07-28T08:02:28.672Z,18.80
2017-07-28T08:04:56.931Z,18.80
2017-07-28T08:07:25.218Z,19.00
2017-07-28T08:09:54.280Z,19.40
2017-07-28T08:12:23.064Z,19.40
2017-07-28T08:14:51.547Z,19.50
2017-07-28T08:17:19.864Z,19.30
2017-07-28T08:19:48.128Z,19.20
2017-07-28T08:22:16.418Z,19.10
2017-07-28T08:24:44.684Z,19.20
2017-07-28T08:27:12.944Z,19.30
2017-07-28T08:29:41.282Z,19.40
2017-07-28T08:32:09.537Z,19.60
2017-07-28T08:34:37.804Z,19.90
2017-07-28T08:37:06.116Z,20.20
2017-07-28T08:39:34.403Z,20.20
2017-07-28T08:42:02.671Z,20.20
2017-07-28T08:44:31.183Z,20.10
2017-07-28T08:46:59.450Z,20.10
2017-07-28T08:49:28.483Z,20.50
2017-07-28T08:51:56.793Z,20.40
2017-07-28T08:54:25.824Z,20.10
2017-07-28T08:56:54.096Z,20.00
2017-07-28T08:59:22.387Z,20.10
2017-07-28T09:01:51.415Z,20.20
2017-07-28T09:04:19.684Z,20.10
2017-07-28T09:06:48.096Z,19.80
2017-07-28T09:09:17.128Z,19.40
2017-07-28T09:11:45.392Z,19.30
2017-07-28T09:14:14.408Z,19.20
2017-07-28T09:16:43.455Z,19.20
2017-07-28T09:19:11.724Z,19.10
2017-07-28T09:21:40.017Z,19.20
2017-07-28T09:24:09.043Z,19.60
2017-07-28T09:26:37.307Z,19.50
2017-07-28T09:29:05.601Z,19.80
2017-07-28T09:31:33.869Z,19.80
2017-07-28T09:34:02.132Z,19.70
2017-07-28T09:36:30.435Z,19.50
2017-07-28T09:38:58.700Z,19.50
2017-07-28T09:41:26.972Z,19.40
2017-07-28T09:43:55.287Z,19.60
2017-07-28T09:46:24.315Z,20.00
2017-07-28T09:48:52.584Z,20.00
2017-07-28T09:51:20.888Z,20.20
2017-07-28T09:53:49.923Z,20.40
2017-07-28T09:56:18.179Z,20.30
2017-07-28T09:58:46.496Z,20.50
2017-07-28T10:01:15.533Z,20.50
2017-07-28T10:03:43.808Z,20.50
2017-07-28T10:06:12.619Z,20.70
2017-07-28T10:08:40.882Z,20.70
2017-07-28T10:11:09.276Z,20.60
2017-07-28T10:13:37.579Z,20.50
2017-07-28T10:16:06.615Z,20.80
2017-07-28T10:18:34.888Z,20.70
2017-07-28T10:21:03.183Z,21.10
2017-07-28T10:23:32.220Z,21.20
2017-07-28T10:26:00.483Z,21.20
2017-07-28T10:28:28.787Z,21.50
2017-07-28T10:30:57.824Z,21.80
2017-07-28T10:33:26.092Z,21.80
2017-07-28T10:35:54.412Z,21.70
2017-07-28T10:38:22.675Z,21.60
2017-07-28T10:40:50.951Z,21.20
2017-07-28T10:43:19.247Z,21.00
2017-07-28T10:45:47.514Z,21.10
2017-07-28T10:48:15.784Z,21.30
2017-07-28T10:50:44.103Z,21.70
2017-07-28T10:53:12.370Z,21.60
2017-07-28T10:55:40.643Z,21.40
2017-07-28T10:58:08.965Z,21.40
2017-07-28T11:00:37.251Z,21.40
2017-07-28T11:03:05.527Z,21.50
2017-07-28T11:05:34.134Z,21.60
2017-07-28T11:08:03.176Z,21.60
2017-07-28T11:10:31.456Z,21.60
2017-07-28T11:12:59.751Z,21.30
2017-07-28T11:15:28.028Z,21.00
2017-07-28T11:17:56.279Z,20.90
2017-07-28T11:20:24.577Z,20.60
2017-07-28T11:22:52.844Z,20.60
2017-07-28T11:25:21.136Z,20.40
2017-07-28T11:27:50.213Z,20.40
2017-07-28T11:30:18.484Z,20.40
2017-07-28T11:32:47.524Z,20.70
2017-07-28T11:35:15.831Z,20.60
2017-07-28T11:37:44.859Z,21.20
2017-07-28T11:40:13.896Z,21.00
2017-07-28T11:42:42.980Z,20.90
2017-07-28T11:45:11.248Z,20.80
2017-07-28T11:47:39.527Z,21.10
2017-07-28T11:50:07.852Z,21.60
2017-07-28T11:52:36.892Z,22.40
2017-07-28T11:55:05.959Z,22.20
2017-07-28T11:57:34.273Z,22.10
2017-07-28T12:00:03.309Z,21.70
2017-07-28T12:02:40.420Z,21.60
2017-07-28T12:05:09.458Z,21.30
2017-07-28T12:07:38.016Z,21.20
2017-07-28T12:10:06.338Z,21.30
2017-07-28T12:12:34.609Z,21.60
2017-07-28T12:15:02.876Z,22.00
2017-07-28T12:17:31.191Z,22.10
2017-07-28T12:20:00.036Z,22.30
2017-07-28T12:22:28.299Z,22.50
2017-07-28T12:24:56.629Z,22.60
2017-07-28T12:27:24.902Z,22.40
2017-07-28T12:29:53.167Z,21.90
2017-07-28T12:32:21.498Z,21.80
2017-07-28T12:34:50.532Z,20.90
2017-07-28T12:37:18.808Z,20.80
2017-07-28T12:39:47.204Z,20.90
2017-07-28T12:42:16.238Z,21.00
2017-07-28T12:44:44.504Z,20.90
2017-07-28T12:47:12.812Z,21.00
2017-07-28T12:49:41.224Z,20.90
2017-07-28T12:52:09.496Z,21.00
2017-07-28T12:54:37.807Z,21.20
2017-07-28T12:57:06.072Z,21.30
2017-07-28T12:59:34.344Z,21.50
2017-07-28T13:02:02.660Z,21.80
2017-07-28T13:04:30.927Z,21.80
2017-07-28T13:06:59.955Z,21.80
2017-07-28T13:09:28.260Z,21.70
2017-07-28T13:11:56.768Z,21.60
2017-07-28T13:14:25.044Z,21.60
2017-07-28T13:16:53.343Z,21.60
2017-07-28T13:19:21.612Z,21.50
2017-07-28T13:21:50.643Z,21.00
2017-07-28T13:24:18.947Z,21.00
2017-07-28T13:26:47.221Z,21.00
2017-07-28T13:29:16.243Z,20.80
2017-07-28T13:31:44.547Z,20.80
2017-07-28T13:34:12.816Z,20.90
2017-07-28T13:36:41.340Z,21.20
2017-07-28T13:39:09.631Z,21.70
2017-07-28T13:41:37.900Z,22.20
2017-07-28T13:44:06.168Z,22.70
2017-07-28T13:46:40.993Z,23.90
2017-07-28T13:49:10.036Z,24.10
2017-07-28T13:51:38.304Z,24.00
2017-07-28T13:54:06.632Z,24.30
2017-07-28T13:56:34.899Z,23.90
2017-07-28T13:59:03.184Z,23.30
2017-07-28T14:01:31.479Z,23.20
2017-07-28T14:04:00.520Z,23.60
2017-07-28T14:06:28.792Z,23.50
2017-07-28T14:08:57.117Z,23.30
2017-07-28T14:11:25.383Z,23.20
2017-07-28T14:13:53.656Z,23.00
2017-07-28T14:16:21.980Z,23.40
2017-07-28T14:18:50.244Z,23.90
2017-07-28T14:21:18.519Z,24.40
2017-07-28T14:23:46.832Z,24.30
2017-07-28T14:26:15.109Z,24.40
2017-07-28T14:28:44.139Z,24.30
2017-07-28T14:31:12.856Z,24.30
2017-07-28T14:33:41.887Z,23.80
2017-07-28T14:36:10.172Z,23.80
2017-07-28T14:38:38.460Z,23.70
2017-07-28T14:41:07.499Z,23.60
2017-07-28T14:43:35.772Z,23.50
2017-07-28T14:46:04.091Z,23.80
2017-07-28T14:48:32.359Z,24.10
2017-07-28T14:51:00.636Z,24.40
2017-07-28T14:53:28.977Z,24.10
2017-07-28T14:55:57.240Z,23.50
2017-07-28T14:58:25.516Z,23.20
2017-07-28T15:00:53.833Z,22.80
2017-07-28T15:03:22.868Z,22.10
2017-07-28T15:05:51.130Z,22.00
2017-07-28T15:08:19.449Z,22.00
2017-07-28T15:10:47.735Z,22.10
2017-07-28T15:13:15.999Z,22.10
2017-07-28T15:15:44.399Z,22.20
2017-07-28T15:18:12.675Z,22.20
2017-07-28T15:20:41.711Z,22.10
2017-07-28T15:23:10.935Z,22.10
2017-07-28T15:25:39.976Z,22.10
2017-07-28T15:28:08.239Z,22.00
2017-07-28T15:30:36.548Z,22.10
2017-07-28T15:33:05.579Z,22.30
2017-07-28T15:35:33.843Z,22.30
2017-07-28T15:38:02.280Z,22.40
2017-07-28T15:40:30.552Z,22.60
2017-07-28T15:42:59.136Z,22.90
2017-07-28T15:45:27.432Z,23.00
2017-07-28T15:47:57.044Z,23.10
2017-07-28T15:50:26.099Z,23.20
2017-07-28T15:52:54.480Z,23.20
2017-07-28T15:55:23.508Z,23.40
2017-07-28T15:57:51.767Z,23.40
2017-07-28T16:00:20.098Z,23.20
2017-07-28T16:02:48.370Z,23.10
2017-07-28T16:05:16.643Z,23.20
2017-07-28T16:07:44.950Z,23.10
2017-07-28T16:10:13.227Z,23.00
2017-07-28T16:12:42.268Z,22.70
2017-07-28T16:15:10.759Z,22.70
2017-07-28T16:17:39.791Z,22.40
2017-07-28T16:20:08.064Z,22.40
2017-07-28T16:22:36.367Z,22.20
2017-07-28T16:25:05.408Z,22.20
2017-07-28T16:27:33.685Z,22.10
2017-07-28T16:30:01.984Z,22.10
2017-07-28T16:32:30.441Z,22.10
2017-07-28T16:34:59.471Z,22.20
2017-07-28T16:37:28.288Z,22.10
2017-07-28T16:39:56.548Z,22.20
2017-07-28T16:42:25.591Z,22.00
2017-07-28T16:44:53.904Z,21.90
2017-07-28T16:47:22.180Z,21.80
2017-07-28T16:49:50.448Z,21.90
2017-07-28T16:52:18.759Z,21.70
2017-07-28T16:54:47.248Z,21.60
2017-07-28T16:57:16.275Z,21.60
2017-07-28T16:59:44.584Z,21.60
2017-07-28T17:02:15.320Z,21.70
2017-07-28T17:04:43.615Z,21.70
2017-07-28T17:07:11.900Z,21.70
2017-07-28T17:09:40.175Z,21.80
2017-07-28T17:12:08.493Z,21.70
2017-07-28T17:14:36.763Z,21.70
2017-07-28T17:17:05.023Z,21.70
2017-07-28T17:19:33.333Z,21.60
2017-07-28T17:22:02.368Z,21.60
2017-07-28T17:24:30.644Z,21.60
2017-07-28T17:26:58.943Z,21.60
2017-07-28T17:29:27.212Z,21.60
2017-07-28T17:31:55.511Z,21.50
2017-07-28T17:34:23.807Z,21.50
2017-07-28T17:36:52.076Z,21.60
2017-07-28T17:39:21.107Z,21.70
2017-07-28T17:41:49.608Z,21.60
2017-07-28T17:44:17.880Z,21.80
2017-07-28T17:46:46.912Z,21.80
2017-07-28T17:49:15.237Z,21.70
2017-07-28T17:51:44.271Z,21.70
2017-07-28T17:54:12.553Z,21.70
2017-07-28T17:56:40.859Z,21.70
2017-07-28T17:59:09.132Z,21.60
2017-07-28T18:01:37.403Z,21.40
2017-07-28T18:04:05.813Z,21.40
2017-07-28T18:06:34.843Z,21.40
2017-07-28T18:09:03.108Z,21.30
2017-07-28T18:11:31.415Z,21.30
2017-07-28T18:14:00.439Z,21.20
2017-07-28T18:16:28.723Z,21.20
2017-07-28T18:18:57.013Z,21.20
2017-07-28T18:21:26.044Z,21.20
2017-07-28T18:23:54.311Z,21.10
2017-07-28T18:26:22.659Z,21.10
2017-07-28T18:28:51.172Z,21.10
2017-07-28T18:31:19.448Z,21.00
2017-07-28T18:33:48.524Z,21.00
2017-07-28T18:36:17.575Z,20.90
2017-07-28T18:38:45.850Z,20.90
2017-07-28T18:41:14.148Z,20.90
2017-07-28T18:43:42.411Z,20.80
2017-07-28T18:46:10.680Z,20.80
2017-07-28T18:48:38.984Z,20.70
2017-07-28T18:51:07.255Z,20.80
2017-07-28T18:53:35.531Z,20.70
2017-07-28T18:56:04.614Z,20.50
2017-07-28T18:58:33.836Z,20.50
2017-07-28T19:01:02.108Z,20.40
2017-07-28T19:03:30.427Z,20.30
2017-07-28T19:05:59.459Z,19.90
2017-07-28T19:08:27.747Z,19.90
2017-07-28T19:10:56.047Z,19.90
2017-07-28T19:13:24.316Z,19.90
2017-07-28T19:15:52.580Z,19.80
2017-07-28T19:18:20.883Z,19.70
2017-07-28T19:20:49.168Z,19.60
2017-07-28T19:23:18.195Z,19.50
2017-07-28T19:25:46.500Z,19.40
2017-07-28T19:28:14.776Z,19.40
2017-07-28T19:30:43.059Z,19.30
2017-07-28T19:33:11.377Z,19.30
2017-07-28T19:35:39.652Z,19.10
2017-07-28T19:38:07.911Z,19.10
2017-07-28T19:40:36.215Z,19.00
2017-07-28T19:43:04.479Z,18.90
2017-07-28T19:45:32.747Z,18.80
2017-07-28T19:48:01.047Z,18.70
2017-07-28T19:50:29.344Z,18.70
2017-07-28T19:52:58.375Z,18.50
2017-07-28T19:55:26.863Z,18.50
2017-07-28T19:57:55.903Z,18.40
2017-07-28T20:00:24.171Z,18.30
2017-07-28T20:02:52.480Z,18.30
2017-07-28T20:05:21.513Z,18.10
2017-07-28T20:07:49.809Z,18.10
2017-07-28T20:10:18.127Z,18.00
2017-07-28T20:12:46.398Z,17.90
2017-07-28T20:15:14.727Z,17.80
2017-07-28T20:17:43.047Z,17.80
2017-07-28T20:20:11.328Z,17.70
2017-07-28T20:22:40.379Z,17.60
2017-07-28T20:25:08.671Z,17.60
2017-07-28T20:27:37.703Z,17.60
2017-07-28T20:30:05.976Z,17.60
2017-07-28T20:32:34.287Z,17.50
2017-07-28T20:35:02.559Z,17.50
2017-07-28T20:37:30.832Z,17.40
2017-07-28T20:39:59.140Z,17.20
2017-07-28T20:42:27.411Z,17.20
2017-07-28T20:44:56.444Z,17.00
2017-07-28T20:47:24.740Z,17.00
2017-07-28T20:49:53.015Z,17.00
2017-07-28T20:52:22.057Z,16.80
2017-07-28T20:54:50.368Z,16.80
2017-07-28T20:57:18.636Z,16.70
2017-07-28T20:59:46.903Z,16.60
2017-07-28T21:02:15.220Z,16.50
2017-07-28T21:04:43.499Z,16.50
2017-07-28T21:07:12.542Z,16.40
2017-07-28T21:09:40.820Z,16.30
2017-07-28T21:12:09.308Z,16.30
2017-07-28T21:14:37.595Z,16.30
2017-07-28T21:17:05.909Z,16.20
2017-07-28T21:22:09.610Z,16.40
2017-07-28T21:24:37.881Z,16.30
2017-07-28T21:27:06.919Z,16.40
2017-07-28T21:29:35.231Z,16.40
2017-07-28T21:32:03.515Z,16.50
2017-07-28T21:34:31.807Z,16.50
2017-07-28T21:37:00.105Z,16.30
2017-07-28T21:39:29.139Z,16.00
2017-07-28T21:41:58.416Z,15.90
2017-07-28T21:44:26.726Z,15.90
2017-07-28T21:46:55.755Z,15.70
2017-07-28T21:49:24.251Z,15.70
2017-07-28T21:51:53.043Z,15.70
2017-07-28T21:54:21.304Z,15.70
2017-07-28T21:56:50.354Z,15.70
2017-07-28T21:59:18.638Z,15.70
2017-07-28T22:01:46.905Z,15.70
2017-07-28T22:04:15.936Z,15.80
2017-07-28T22:06:44.263Z,15.70
2017-07-28T22:09:13.305Z,15.70
2017-07-28T22:11:41.567Z,15.70
2017-07-28T22:14:09.883Z,15.70
2017-07-28T22:16:38.151Z,15.70
2017-07-28T22:19:06.415Z,15.60
2017-07-28T22:21:35.315Z,15.60
2017-07-28T22:24:03.609Z,15.60
2017-07-28T22:26:31.873Z,15.70
2017-07-28T22:29:00.953Z,15.70
2017-07-28T22:31:30.016Z,15.70
2017-07-28T22:33:58.276Z,15.60
2017-07-28T22:36:26.583Z,15.70
2017-07-28T22:38:54.858Z,15.70
2017-07-28T22:41:23.148Z,15.80
2017-07-28T22:43:51.452Z,15.90
2017-07-28T22:46:19.729Z,16.00
2017-07-28T22:48:47.996Z,15.90
2017-07-28T22:51:16.420Z,15.90
2017-07-28T22:53:45.468Z,15.90
2017-07-28T22:56:13.743Z,15.80
2017-07-28T22:58:42.036Z,15.90
2017-07-28T23:01:11.072Z,16.10
2017-07-28T23:03:40.140Z,16.10
2017-07-28T23:06:08.471Z,16.10
2017-07-28T23:08:36.748Z,16.10
2017-07-28T23:11:05.011Z,16.10
2017-07-28T23:13:33.542Z,16.10
2017-07-28T23:16:01.801Z,16.10
2017-07-28T23:18:30.836Z,16.10
2017-07-28T23:21:00.051Z,16.10
2017-07-28T23:23:28.329Z,16.10
2017-07-28T23:25:57.372Z,16.10
2017-07-28T23:28:25.683Z,16.00
2017-07-28T23:30:53.972Z,16.00
2017-07-28T23:33:22.244Z,15.90
2017-07-28T23:35:50.557Z,15.90
2017-07-28T23:38:19.584Z,15.90
2017-07-28T23:40:47.860Z,15.80
2017-07-28T23:43:16.168Z,15.80
2017-07-28T23:45:44.444Z,15.70
2017-07-28T23:48:12.722Z,15.60
2017-07-28T23:50:41.029Z,15.60
2017-07-28T23:53:10.069Z,15.80
2017-07-28T23:55:38.328Z,15.80
2017-07-28T23:58:06.632Z,15.90
